createdAt,value
2022-10-25T00:01:31.591Z,23.27
2022-10-25T00:03:33.258Z,26.73
2022-10-25T00:05:35.542Z,18.65
2022-10-25T00:07:37.201Z,24.60
2022-10-25T00:09:39.045Z,28.75
2022-10-25T00:11:40.669Z,25.05
2022-10-25T00:13:42.270Z,20.73
2022-10-25T00:15:44.026Z,24.90
2022-10-25T00:17:45.803Z,16.63
2022-10-25T00:19:47.681Z,27.67
2022-10-25T00:21:49.362Z,22.33
2022-10-25T00:23:52.042Z,19.20
2022-10-25T00:26:01.852Z,30.48
2022-10-25T00:28:03.528Z,24.40
2022-10-25T00:30:07.058Z,25.77
2022-10-25T00:32:08.760Z,20.02
2022-10-25T00:34:10.423Z,23.42
2022-10-25T00:36:20.526Z,26.27
2022-10-25T00:38:22.190Z,24.88
2022-10-25T00:40:23.859Z,27.67
2022-10-25T00:42:27.401Z,26.55
2022-10-25T00:44:40.983Z,28.02
2022-10-25T00:46:43.885Z,23.77
2022-10-25T00:49:01.714Z,25.90
2022-10-25T00:51:04.183Z,22.90
2022-10-25T00:53:10.257Z,27.42
2022-10-25T00:55:12.833Z,23.88
2022-10-25T00:57:41.787Z,23.55
2022-10-25T00:59:44.756Z,23.90
2022-10-25T01:01:46.565Z,27.63
2022-10-25T01:03:49.336Z,28.98
2022-10-25T01:05:51.788Z,23.60
2022-10-25T01:07:53.418Z,25.33
2022-10-25T01:09:56.126Z,21.70
2022-10-25T01:11:57.932Z,22.88
2022-10-25T01:13:59.542Z,23.98
2022-10-25T01:16:15.687Z,25.13
2022-10-25T01:18:22.634Z,27.48
2022-10-25T01:20:56.582Z,18.63
2022-10-25T01:23:28.372Z,23.95
2022-10-25T01:25:54.661Z,26.48
2022-10-25T01:28:05.496Z,19.90
2022-10-25T01:30:25.392Z,19.55
2022-10-25T01:32:39.203Z,23.63
2022-10-25T01:34:53.451Z,28.02
2022-10-25T01:39:23.654Z,26.65
2022-10-25T01:41:32.775Z,22.67
2022-10-25T01:43:42.421Z,24.42
2022-10-25T01:45:52.789Z,29.25
2022-10-25T01:48:03.760Z,23.55
2022-10-25T01:50:08.788Z,16.05
2022-10-25T01:52:10.434Z,23.77
2022-10-25T01:54:25.045Z,23.33
2022-10-25T01:56:40.755Z,25.38
2022-10-25T01:59:00.865Z,25.55
2022-10-25T02:01:25.759Z,22.27
2022-10-25T02:03:43.205Z,21.08
2022-10-25T02:05:47.798Z,25.98
2022-10-25T02:08:05.144Z,23.23
2022-10-25T02:10:17.888Z,28.25
2022-10-25T02:12:25.611Z,22.70
2022-10-25T02:14:38.732Z,20.38
2022-10-25T02:16:45.217Z,25.42
2022-10-25T02:18:49.606Z,25.02
2022-10-25T02:20:52.558Z,25.45
2022-10-25T02:22:55.051Z,19.43
2022-10-25T02:24:57.917Z,24.25
2022-10-25T02:27:00.497Z,27.50
2022-10-25T02:29:03.959Z,22.73
2022-10-25T02:31:17.729Z,25.02
2022-10-25T02:33:19.312Z,24.05
2022-10-25T02:35:21.025Z,22.13
2022-10-25T02:37:22.739Z,21.50
2022-10-25T02:39:29.179Z,25.67
2022-10-25T02:41:33.925Z,22.85
2022-10-25T02:43:35.658Z,25.50
2022-10-25T02:45:37.246Z,20.13
2022-10-25T02:47:38.915Z,22.05
2022-10-25T02:49:40.485Z,24.58
2022-10-25T02:51:42.084Z,17.92
2022-10-25T02:53:44.150Z,18.95
2022-10-25T02:55:45.841Z,19.75
2022-10-25T02:57:47.434Z,19.88
2022-10-25T02:59:49.528Z,22.73
2022-10-25T03:01:51.188Z,41.78
2022-10-25T03:03:53.021Z,31.58
2022-10-25T03:05:54.952Z,23.23
2022-10-25T03:07:56.529Z,18.58
2022-10-25T03:09:58.176Z,24.98
2022-10-25T03:11:59.840Z,22.33
2022-10-25T03:14:01.405Z,25.30
2022-10-25T03:16:03.586Z,24.65
2022-10-25T03:18:05.304Z,24.08
2022-10-25T03:20:07.668Z,20.02
2022-10-25T03:22:09.389Z,26.67
2022-10-25T03:24:11.000Z,29.65
2022-10-25T03:26:12.625Z,26.25
2022-10-25T03:28:14.468Z,21.05
2022-10-25T03:30:16.560Z,23.75
2022-10-25T03:32:18.144Z,32.13
2022-10-25T03:34:19.908Z,27.75
2022-10-25T03:36:21.529Z,30.98
2022-10-25T03:38:23.364Z,26.85
2022-10-25T03:40:25.035Z,22.63
2022-10-25T03:42:26.849Z,21.63
2022-10-25T03:44:28.508Z,24.42
2022-10-25T03:46:30.144Z,24.42
2022-10-25T03:48:31.722Z,20.63
2022-10-25T03:50:33.414Z,33.78
2022-10-25T03:52:35.525Z,27.23
2022-10-25T03:54:37.208Z,22.77
2022-10-25T03:56:38.804Z,27.90
2022-10-25T03:58:40.513Z,22.10
2022-10-25T04:00:42.251Z,29.15
2022-10-25T04:02:43.864Z,23.35
2022-10-25T04:04:45.484Z,26.60
2022-10-25T04:06:47.092Z,24.45
2022-10-25T04:08:48.722Z,24.35
2022-10-25T04:10:50.551Z,24.92
2022-10-25T04:12:53.880Z,21.05
2022-10-25T04:14:56.322Z,29.23
2022-10-25T04:16:57.972Z,19.67
2022-10-25T04:18:59.634Z,22.75
2022-10-25T04:21:01.304Z,23.70
2022-10-25T04:23:02.945Z,20.83
2022-10-25T04:25:04.933Z,21.58
2022-10-25T04:27:06.543Z,20.63
2022-10-25T04:29:08.420Z,26.55
2022-10-25T04:31:10.224Z,23.80
2022-10-25T04:33:11.825Z,25.98
2022-10-25T04:35:13.580Z,20.70
2022-10-25T04:37:15.172Z,29.95
2022-10-25T04:39:16.788Z,31.48
2022-10-25T04:41:19.265Z,29.73
2022-10-25T04:43:20.862Z,28.70
2022-10-25T04:45:22.554Z,39.95
2022-10-25T04:47:24.240Z,32.53
2022-10-25T04:49:25.846Z,37.65
2022-10-25T04:51:27.419Z,36.92
2022-10-25T04:53:29.070Z,32.60
2022-10-25T04:55:31.546Z,33.15
2022-10-25T04:57:33.220Z,28.77
2022-10-25T04:59:34.873Z,30.88
2022-10-25T05:01:36.613Z,32.22
2022-10-25T05:03:38.847Z,29.50
2022-10-25T05:05:40.597Z,37.42
2022-10-25T05:07:42.197Z,36.85
2022-10-25T05:09:46.598Z,29.73
2022-10-25T05:11:49.527Z,38.33
2022-10-25T05:13:51.143Z,36.83
2022-10-25T05:15:56.322Z,41.85
2022-10-25T05:18:01.590Z,42.65
2022-10-25T05:20:03.549Z,34.45
2022-10-25T05:22:05.163Z,35.55
2022-10-25T05:24:06.843Z,32.03
2022-10-25T05:26:11.174Z,43.35
2022-10-25T05:28:12.766Z,36.22
2022-10-25T05:30:14.364Z,49.10
2022-10-25T05:32:16.209Z,36.00
2022-10-25T05:34:17.801Z,33.72
2022-10-25T05:36:19.771Z,53.83
2022-10-25T05:38:21.417Z,43.05
2022-10-25T05:40:23.014Z,36.22
2022-10-25T05:42:24.605Z,39.20
2022-10-25T05:44:26.398Z,38.70
2022-10-25T05:46:28.055Z,29.02
2022-10-25T05:48:29.687Z,51.53
2022-10-25T05:50:31.390Z,41.72
2022-10-25T05:52:32.988Z,36.30
2022-10-25T05:54:34.584Z,30.65
2022-10-25T05:56:36.979Z,34.28
2022-10-25T05:58:38.863Z,27.75
2022-10-25T06:00:40.435Z,31.42
2022-10-25T06:02:42.018Z,34.35
2022-10-25T06:04:43.577Z,30.17
2022-10-25T06:06:47.156Z,40.75
2022-10-25T06:08:48.857Z,32.10
2022-10-25T06:10:50.476Z,33.80
2022-10-25T06:12:52.136Z,41.08
2022-10-25T06:14:53.745Z,35.38
2022-10-25T06:16:55.349Z,29.63
2022-10-25T06:18:57.203Z,34.83
2022-10-25T06:21:03.605Z,37.65
2022-10-25T06:23:08.058Z,31.88
2022-10-25T06:25:12.087Z,34.28
2022-10-25T06:27:13.641Z,40.88
2022-10-25T06:29:15.323Z,37.13
2022-10-25T06:31:18.638Z,36.50
2022-10-25T06:33:22.332Z,34.33
2022-10-25T06:35:24.958Z,48.33
2022-10-25T06:37:26.585Z,36.55
2022-10-25T06:39:28.177Z,31.05
2022-10-25T06:41:31.472Z,37.20
2022-10-25T06:43:35.031Z,33.03
2022-10-25T06:45:36.663Z,27.15
2022-10-25T06:47:38.226Z,31.35
2022-10-25T06:49:39.927Z,35.58
2022-10-25T06:51:41.483Z,30.73
2022-10-25T06:53:43.189Z,32.72
2022-10-25T06:55:47.224Z,34.25
2022-10-25T06:57:48.852Z,32.55
2022-10-25T06:59:50.661Z,32.20
2022-10-25T07:01:52.641Z,31.42
2022-10-25T07:03:55.270Z,39.05
2022-10-25T07:06:01.087Z,42.97
2022-10-25T07:08:02.934Z,37.63
2022-10-25T07:10:04.831Z,36.05
2022-10-25T07:12:12.286Z,36.22
2022-10-25T07:14:14.588Z,39.38
2022-10-25T07:16:18.230Z,48.47
2022-10-25T07:18:19.873Z,44.47
2022-10-25T07:20:21.656Z,41.60
2022-10-25T07:22:23.231Z,38.35
2022-10-25T07:24:24.792Z,38.45
2022-10-25T07:26:31.833Z,39.55
2022-10-25T07:28:33.462Z,44.15
2022-10-25T07:30:35.229Z,43.08
2022-10-25T07:32:41.452Z,35.33
2022-10-25T07:34:44.207Z,31.27
2022-10-25T07:36:45.778Z,37.65
2022-10-25T07:38:47.467Z,32.53
2022-10-25T07:40:55.340Z,36.53
2022-10-25T07:42:56.936Z,36.22
2022-10-25T07:44:58.525Z,38.33
2022-10-25T07:47:00.195Z,30.48
2022-10-25T07:49:01.792Z,38.80
2022-10-25T07:51:14.134Z,35.10
2022-10-25T07:53:15.891Z,34.30
2022-10-25T07:55:17.501Z,32.83
2022-10-25T07:57:19.101Z,41.90
2022-10-25T07:59:22.009Z,37.75
2022-10-25T08:01:25.456Z,39.13
2022-10-25T08:03:27.149Z,37.40
2022-10-25T08:05:28.948Z,42.10
2022-10-25T08:07:30.574Z,30.70
2022-10-25T08:09:38.412Z,42.55
2022-10-25T08:11:40.817Z,31.70
2022-10-25T08:13:42.450Z,43.97
2022-10-25T08:15:51.310Z,41.22
2022-10-25T08:18:03.122Z,42.30
2022-10-25T08:20:05.108Z,31.45
2022-10-25T08:22:06.736Z,35.25
2022-10-25T08:24:08.591Z,32.90
2022-10-25T08:26:10.286Z,36.28
2022-10-25T08:28:12.377Z,32.33
2022-10-25T08:30:14.046Z,35.25
2022-10-25T08:32:15.593Z,39.15
2022-10-25T08:34:17.163Z,37.00
2022-10-25T08:36:18.793Z,45.75
2022-10-25T08:38:20.401Z,40.60
2022-10-25T08:40:25.811Z,37.80
2022-10-25T08:42:55.034Z,32.33
2022-10-25T08:45:11.142Z,41.10
2022-10-25T08:47:20.700Z,36.38
2022-10-25T08:49:29.596Z,34.92
2022-10-25T08:51:37.098Z,33.90
2022-10-25T08:53:43.158Z,31.10
2022-10-25T08:58:13.585Z,25.77
2022-10-25T09:00:23.264Z,27.40
2022-10-25T09:02:45.906Z,30.85
2022-10-25T09:04:47.646Z,28.10
2022-10-25T09:07:01.234Z,35.97
2022-10-25T09:09:33.667Z,33.05
2022-10-25T09:11:45.160Z,27.25
2022-10-25T09:14:09.139Z,30.40
2022-10-25T09:16:20.687Z,25.20
2022-10-25T09:18:36.861Z,36.13
2022-10-25T09:20:46.021Z,30.55
2022-10-25T09:22:58.137Z,26.83
2022-10-25T09:25:21.127Z,29.95
2022-10-25T09:27:32.294Z,29.00
2022-10-25T09:30:15.294Z,29.33
2022-10-25T09:32:29.476Z,27.98
2022-10-25T09:34:35.620Z,26.23
2022-10-25T09:36:43.330Z,28.63
2022-10-25T09:38:52.917Z,27.25
2022-10-25T09:41:05.831Z,34.40
2022-10-25T09:43:14.606Z,36.58
2022-10-25T09:45:19.161Z,31.08
2022-10-25T09:47:48.886Z,39.97
2022-10-25T09:50:24.961Z,31.17
2022-10-25T09:52:40.868Z,27.92
2022-10-25T09:54:47.868Z,34.30
2022-10-25T09:56:49.616Z,32.65
2022-10-25T09:58:51.277Z,35.88
2022-10-25T10:00:54.845Z,31.20
2022-10-25T10:04:58.576Z,32.33
2022-10-25T10:07:07.979Z,32.63
2022-10-25T10:09:12.510Z,34.95
2022-10-25T10:11:16.236Z,35.47
2022-10-25T10:13:17.804Z,33.65
2022-10-25T10:15:26.060Z,35.85
2022-10-25T10:17:30.115Z,32.72
2022-10-25T10:19:31.846Z,31.30
2022-10-25T10:21:34.460Z,34.67
2022-10-25T10:23:43.862Z,42.63
2022-10-25T10:25:45.647Z,36.70
2022-10-25T10:27:49.188Z,35.50
2022-10-25T10:29:53.894Z,36.58
2022-10-25T10:32:00.235Z,37.00
2022-10-25T10:34:02.139Z,36.60
2022-10-25T10:36:27.202Z,26.88
2022-10-25T10:38:29.281Z,30.83
2022-10-25T10:40:31.091Z,29.77
2022-10-25T10:42:32.713Z,34.47
2022-10-25T10:44:34.841Z,36.47
2022-10-25T10:46:36.708Z,26.98
2022-10-25T10:48:45.508Z,27.85
2022-10-25T10:50:51.320Z,36.08
2022-10-25T10:52:59.446Z,29.73
2022-10-25T10:55:02.372Z,27.20
2022-10-25T10:57:05.424Z,30.00
2022-10-25T10:59:24.869Z,30.15
2022-10-25T11:01:35.464Z,28.40
2022-10-25T11:03:53.511Z,24.77
2022-10-25T11:06:02.506Z,24.67
2022-10-25T11:08:07.039Z,30.75
2022-10-25T11:10:23.660Z,29.88
2022-10-25T11:12:25.509Z,23.88
2022-10-25T11:14:27.119Z,30.38
2022-10-25T11:16:32.432Z,34.30
2022-10-25T11:18:56.144Z,31.48
2022-10-25T11:21:26.153Z,27.27
2022-10-25T11:23:43.320Z,24.95
2022-10-25T11:25:52.416Z,31.48
2022-10-25T11:28:12.372Z,21.17
2022-10-25T11:30:19.597Z,39.45
2022-10-25T11:32:55.053Z,24.67
2022-10-25T11:35:06.545Z,23.73
2022-10-25T11:37:21.627Z,27.98
2022-10-25T11:39:38.194Z,28.52
2022-10-25T11:41:48.549Z,22.23
2022-10-25T11:43:50.098Z,25.52
2022-10-25T11:46:18.273Z,28.75
2022-10-25T11:48:25.781Z,23.73
2022-10-25T11:50:41.143Z,20.75
2022-10-25T11:52:56.863Z,22.00
2022-10-25T11:55:18.389Z,25.55
2022-10-25T11:57:37.415Z,31.73
2022-10-25T11:59:45.490Z,28.08
2022-10-25T12:01:53.453Z,21.45
2022-10-25T12:04:53.507Z,23.80
2022-10-25T12:06:58.283Z,30.70
2022-10-25T12:09:21.256Z,26.10
2022-10-25T12:11:30.063Z,28.75
2022-10-25T12:13:42.364Z,30.90
2022-10-25T12:15:47.168Z,29.88
2022-10-25T12:17:50.180Z,26.55
2022-10-25T12:19:54.812Z,32.85
2022-10-25T12:22:01.929Z,27.05
2022-10-25T12:24:05.509Z,27.33
2022-10-25T12:26:12.196Z,23.88
2022-10-25T12:28:37.649Z,26.45
2022-10-25T12:30:40.391Z,24.08
2022-10-25T12:32:44.889Z,29.90
2022-10-25T12:34:51.546Z,22.05
2022-10-25T12:36:56.401Z,24.55
2022-10-25T12:39:03.326Z,28.42
2022-10-25T12:41:09.017Z,29.02
2022-10-25T12:43:31.420Z,19.38
2022-10-25T12:45:39.038Z,19.70
2022-10-25T12:47:40.768Z,20.20
2022-10-25T12:50:23.282Z,19.55
2022-10-25T12:52:40.217Z,31.98
2022-10-25T12:55:02.943Z,23.25
2022-10-25T12:57:14.397Z,23.63
2022-10-25T12:59:42.845Z,22.08
2022-10-25T13:02:21.381Z,19.73
2022-10-25T13:04:33.718Z,22.27
2022-10-25T13:06:38.970Z,16.77
2022-10-25T13:08:41.036Z,23.83
2022-10-25T13:10:47.008Z,21.25
2022-10-25T13:13:03.833Z,26.85
2022-10-25T13:15:06.097Z,22.70
2022-10-25T13:17:16.882Z,20.88
2022-10-25T13:19:35.865Z,22.42
2022-10-25T13:21:54.646Z,17.55
2022-10-25T13:24:00.250Z,24.45
2022-10-25T13:26:06.035Z,25.45
2022-10-25T13:28:16.631Z,21.30
2022-10-25T13:32:24.714Z,24.95
2022-10-25T13:34:31.519Z,27.95
2022-10-25T13:36:56.163Z,20.05
2022-10-25T13:39:05.283Z,21.10
2022-10-25T13:41:19.739Z,23.00
2022-10-25T13:43:21.991Z,19.25
2022-10-25T13:45:33.459Z,20.23
2022-10-25T13:47:42.836Z,22.60
2022-10-25T13:49:47.576Z,24.27
2022-10-25T13:51:49.167Z,16.40
2022-10-25T13:53:54.050Z,19.85
2022-10-25T13:56:22.998Z,18.80
2022-10-25T13:58:31.959Z,23.73
2022-10-25T14:00:40.314Z,20.80
2022-10-25T14:03:09.626Z,19.40
2022-10-25T14:05:11.861Z,21.83
2022-10-25T14:07:45.704Z,22.75
2022-10-25T14:09:51.021Z,26.48
2022-10-25T14:12:01.945Z,16.40
2022-10-25T14:14:23.460Z,21.30
2022-10-25T14:16:29.443Z,30.02
2022-10-25T14:18:34.176Z,22.17
2022-10-25T14:20:36.701Z,25.17
2022-10-25T14:22:52.131Z,24.73
2022-10-25T14:24:54.654Z,21.63
2022-10-25T14:27:01.418Z,22.83
2022-10-25T14:29:14.356Z,19.60
2022-10-25T14:31:22.154Z,24.40
2022-10-25T14:33:33.823Z,24.13
2022-10-25T14:35:47.104Z,22.95
2022-10-25T14:37:48.995Z,23.73
2022-10-25T14:39:53.949Z,17.85
2022-10-25T14:42:00.846Z,29.15
2022-10-25T14:44:03.333Z,22.83
2022-10-25T14:46:14.287Z,19.95
2022-10-25T14:48:15.874Z,27.00
2022-10-25T14:50:23.308Z,24.88
2022-10-25T14:52:26.231Z,42.60
2022-10-25T14:54:34.925Z,25.88
2022-10-25T14:56:42.635Z,25.40
2022-10-25T14:58:44.267Z,22.30
2022-10-25T15:00:58.168Z,38.28
2022-10-25T15:05:03.995Z,21.90
2022-10-25T15:07:06.395Z,26.60
2022-10-25T15:09:41.835Z,19.98
2022-10-25T15:11:39.873Z,25.15
2022-10-25T15:13:43.397Z,22.40
2022-10-25T15:17:52.420Z,25.75
2022-10-25T15:19:59.309Z,26.95
2022-10-25T15:22:10.945Z,21.10
2022-10-25T15:24:24.109Z,24.80
2022-10-25T15:26:26.856Z,16.38
2022-10-25T15:28:48.047Z,21.07
2022-10-25T15:30:49.657Z,29.52
2022-10-25T15:32:51.250Z,34.88
2022-10-25T15:34:54.741Z,24.40
2022-10-25T15:36:56.342Z,26.83
2022-10-25T15:39:11.748Z,26.55
2022-10-25T15:41:18.014Z,24.15
2022-10-25T15:43:19.819Z,27.70
2022-10-25T15:45:21.429Z,30.70
2022-10-25T15:47:33.989Z,26.50
2022-10-25T15:49:35.626Z,30.60
2022-10-25T15:51:39.496Z,31.40
2022-10-25T15:53:41.135Z,29.48
2022-10-25T15:55:42.797Z,39.53
2022-10-25T15:57:44.982Z,27.42
2022-10-25T15:59:46.675Z,23.88
2022-10-25T16:01:50.902Z,21.95
2022-10-25T16:03:52.609Z,29.15
2022-10-25T16:05:54.237Z,37.35
2022-10-25T16:07:55.983Z,26.15
2022-10-25T16:09:57.608Z,23.60
2022-10-25T16:11:59.917Z,29.33
2022-10-25T16:14:01.873Z,25.50
2022-10-25T16:16:11.755Z,22.70
2022-10-25T16:18:18.333Z,27.13
2022-10-25T16:20:28.660Z,29.65
2022-10-25T16:22:30.302Z,20.83
2022-10-25T16:24:31.957Z,23.15
2022-10-25T16:26:36.694Z,23.85
2022-10-25T16:28:40.581Z,25.58
2022-10-25T16:30:43.937Z,23.25
2022-10-25T16:32:46.105Z,40.47
2022-10-25T16:34:47.912Z,19.00
2022-10-25T16:36:50.638Z,27.52
2022-10-25T16:38:52.249Z,19.37
2022-10-25T16:40:53.818Z,27.65
2022-10-25T16:42:55.502Z,29.88
2022-10-25T16:44:57.414Z,21.35
2022-10-25T16:47:00.230Z,24.23
2022-10-25T16:49:02.358Z,29.90
2022-10-25T16:51:04.400Z,25.02
2022-10-25T16:53:10.324Z,22.17
2022-10-25T16:55:12.095Z,26.85
2022-10-25T16:57:14.717Z,24.58
2022-10-25T16:59:16.453Z,27.48
2022-10-25T17:01:34.680Z,27.83
2022-10-25T17:03:36.725Z,34.70
2022-10-25T17:05:39.905Z,35.33
2022-10-25T17:07:45.523Z,27.30
2022-10-25T17:09:47.231Z,20.58
2022-10-25T17:11:48.796Z,28.90
2022-10-25T17:13:50.369Z,23.73
2022-10-25T17:15:52.180Z,28.13
2022-10-25T17:17:53.767Z,25.00
2022-10-25T17:19:55.404Z,21.83
2022-10-25T17:21:57.522Z,27.25
2022-10-25T17:23:59.587Z,34.53
2022-10-25T17:26:02.118Z,25.13
2022-10-25T17:28:04.186Z,24.77
2022-10-25T17:30:07.234Z,27.98
2022-10-25T17:32:08.824Z,23.05
2022-10-25T17:34:10.722Z,25.90
2022-10-25T17:36:15.206Z,18.23
2022-10-25T17:38:17.106Z,31.63
2022-10-25T17:40:18.987Z,30.35
2022-10-25T17:42:20.652Z,29.90
2022-10-25T17:44:22.228Z,26.15
2022-10-25T17:46:27.912Z,23.88
2022-10-25T17:48:29.698Z,14.75
2022-10-25T17:50:32.015Z,19.38
2022-10-25T17:52:33.838Z,19.15
2022-10-25T17:54:37.300Z,19.20
2022-10-25T17:56:38.884Z,27.00
2022-10-25T17:58:45.221Z,20.13
2022-10-25T18:00:46.851Z,20.42
2022-10-25T18:02:50.783Z,27.05
2022-10-25T18:05:08.571Z,25.58
2022-10-25T18:07:15.250Z,18.45
2022-10-25T18:09:17.013Z,32.55
2022-10-25T18:11:22.365Z,26.55
2022-10-25T18:13:25.050Z,21.95
2022-10-25T18:15:26.764Z,24.83
2022-10-25T18:17:28.347Z,19.67
2022-10-25T18:19:29.960Z,32.28
2022-10-25T18:21:32.099Z,23.10
2022-10-25T18:23:34.137Z,22.85
2022-10-25T18:25:36.437Z,22.98
2022-10-25T18:27:38.019Z,25.00
2022-10-25T18:29:40.277Z,18.80
2022-10-25T18:31:41.853Z,20.48
2022-10-25T18:33:43.599Z,22.75
2022-10-25T18:35:45.241Z,22.88
2022-10-25T18:37:48.394Z,16.23
2022-10-25T18:39:50.195Z,14.40
2022-10-25T18:41:52.593Z,22.20
2022-10-25T18:43:54.967Z,19.25
2022-10-25T18:45:59.893Z,16.55
2022-10-25T18:48:01.843Z,21.65
2022-10-25T18:50:03.723Z,22.20
2022-10-25T18:52:06.021Z,17.98
2022-10-25T18:54:11.699Z,16.42
2022-10-25T18:56:17.103Z,23.40
2022-10-25T18:58:21.481Z,20.73
2022-10-25T19:00:27.711Z,24.50
2022-10-25T19:02:31.977Z,13.98
2022-10-25T19:04:35.842Z,20.60
2022-10-25T19:06:37.435Z,23.55
2022-10-25T19:08:39.464Z,16.67
2022-10-25T19:10:42.134Z,18.08
2022-10-25T19:12:43.799Z,22.20
2022-10-25T19:14:45.436Z,22.45
2022-10-25T19:16:47.121Z,17.65
2022-10-25T19:18:48.936Z,16.73
2022-10-25T19:20:50.512Z,20.30
2022-10-25T19:22:53.458Z,23.95
2022-10-25T19:24:55.048Z,17.63
2022-10-25T19:26:57.881Z,13.98
2022-10-25T19:29:00.964Z,16.53
2022-10-25T19:31:10.365Z,14.88
2022-10-25T19:33:11.971Z,20.27
2022-10-25T19:35:13.764Z,26.33
2022-10-25T19:37:15.371Z,16.20
2022-10-25T19:39:16.954Z,18.75
2022-10-25T19:41:22.801Z,15.55
2022-10-25T19:43:24.361Z,17.75
2022-10-25T19:45:26.286Z,18.38
2022-10-25T19:47:28.154Z,19.13
2022-10-25T19:49:29.739Z,17.77
2022-10-25T19:51:31.450Z,24.50
2022-10-25T19:53:33.546Z,20.35
2022-10-25T19:55:35.617Z,20.25
2022-10-25T19:57:37.185Z,16.75
2022-10-25T19:59:38.769Z,14.75
2022-10-25T20:01:40.529Z,20.52
2022-10-25T20:03:45.109Z,15.70
2022-10-25T20:05:46.696Z,17.85
2022-10-25T20:07:48.577Z,18.85
2022-10-25T20:09:50.355Z,15.85
2022-10-25T20:11:51.911Z,18.20
2022-10-25T20:13:55.011Z,22.02
2022-10-25T20:15:56.680Z,13.15
2022-10-25T20:17:58.225Z,18.92
2022-10-25T20:19:59.892Z,16.98
2022-10-25T20:22:01.465Z,20.35
2022-10-25T20:24:08.453Z,17.83
2022-10-25T20:26:15.689Z,16.63
2022-10-25T20:28:17.322Z,21.23
2022-10-25T20:30:18.967Z,19.00
2022-10-25T20:32:21.447Z,19.23
2022-10-25T20:34:23.172Z,17.38
2022-10-25T20:36:25.452Z,24.38
2022-10-25T20:38:27.125Z,25.80
2022-10-25T20:40:28.770Z,19.02
2022-10-25T20:42:30.429Z,16.00
2022-10-25T20:44:32.265Z,12.75
2022-10-25T20:46:34.077Z,17.30
2022-10-25T20:48:35.820Z,17.00
2022-10-25T20:50:37.448Z,20.17
2022-10-25T20:52:47.663Z,15.05
2022-10-25T20:54:49.839Z,12.88
2022-10-25T20:56:51.668Z,17.70
2022-10-25T20:58:53.292Z,14.05
2022-10-25T21:00:57.540Z,15.75
2022-10-25T21:02:59.782Z,14.45
2022-10-25T21:05:01.373Z,13.43
2022-10-25T21:07:03.780Z,20.17
2022-10-25T21:09:05.413Z,16.13
2022-10-25T21:11:09.494Z,14.68
2022-10-25T21:13:11.077Z,15.30
2022-10-25T21:15:12.672Z,19.45
2022-10-25T21:17:14.537Z,16.38
2022-10-25T21:19:16.191Z,23.50
2022-10-25T21:21:19.531Z,19.08
2022-10-25T21:23:21.329Z,13.65
2022-10-25T21:25:22.968Z,14.60
2022-10-25T21:27:24.870Z,16.20
2022-10-25T21:29:26.499Z,10.73
2022-10-25T21:31:28.094Z,17.92
2022-10-25T21:33:29.957Z,13.57
2022-10-25T21:35:32.336Z,13.82
2022-10-25T21:37:33.923Z,14.38
2022-10-25T21:39:35.598Z,17.90
2022-10-25T21:41:37.196Z,15.23
2022-10-25T21:43:45.426Z,17.10
2022-10-25T21:45:47.327Z,19.77
2022-10-25T21:47:49.152Z,15.98
2022-10-25T21:49:51.089Z,15.73
2022-10-25T21:51:52.678Z,17.13
2022-10-25T21:53:55.218Z,14.63
2022-10-25T21:56:14.881Z,12.85
2022-10-25T21:58:16.459Z,13.13
2022-10-25T22:00:21.317Z,13.18
2022-10-25T22:02:23.196Z,21.52
2022-10-25T22:04:26.101Z,16.23
2022-10-25T22:06:27.851Z,16.30
2022-10-25T22:08:29.682Z,16.08
2022-10-25T22:10:31.254Z,14.60
2022-10-25T22:12:32.833Z,12.57
2022-10-25T22:14:34.514Z,14.60
2022-10-25T22:16:36.480Z,16.92
2022-10-25T22:18:38.141Z,13.07
2022-10-25T22:20:39.734Z,19.98
2022-10-25T22:22:41.568Z,13.65
2022-10-25T22:24:43.175Z,16.75
2022-10-25T22:26:45.784Z,14.98
2022-10-25T22:28:51.937Z,17.05
2022-10-25T22:31:02.007Z,18.00
2022-10-25T22:33:03.589Z,16.23
2022-10-25T22:35:05.691Z,14.90
2022-10-25T22:37:07.411Z,18.88
2022-10-25T22:39:09.305Z,14.25
2022-10-25T22:41:16.226Z,18.27
2022-10-25T22:43:17.804Z,15.25
2022-10-25T22:45:19.405Z,15.57
2022-10-25T22:47:21.044Z,10.60
2022-10-25T22:49:22.913Z,12.10
2022-10-25T22:51:26.224Z,11.07
2022-10-25T22:53:28.520Z,14.13
2022-10-25T22:55:30.176Z,16.13
2022-10-25T22:57:31.787Z,17.83
2022-10-25T22:59:33.669Z,13.85
2022-10-25T23:01:36.654Z,14.55
2022-10-25T23:03:42.865Z,19.30
2022-10-25T23:05:44.758Z,13.73
2022-10-25T23:07:46.371Z,13.30
2022-10-25T23:09:47.964Z,16.77
2022-10-25T23:11:50.146Z,19.17
2022-10-25T23:13:52.257Z,17.67
2022-10-25T23:15:53.907Z,10.07
2022-10-25T23:17:55.580Z,16.25
2022-10-25T23:19:57.304Z,12.32
2022-10-25T23:21:58.914Z,10.02
2022-10-25T23:24:01.029Z,11.32
2022-10-25T23:26:02.769Z,11.57
2022-10-25T23:28:04.539Z,13.80
2022-10-25T23:30:09.850Z,10.68
2022-10-25T23:32:14.066Z,13.25
2022-10-25T23:34:15.704Z,14.60
2022-10-25T23:36:19.677Z,9.98
2022-10-25T23:38:21.338Z,13.38
2022-10-25T23:40:23.010Z,10.43
2022-10-25T23:42:24.688Z,13.55
2022-10-25T23:44:26.315Z,12.05
2022-10-25T23:46:28.167Z,18.13
2022-10-25T23:48:30.937Z,14.80
2022-10-25T23:50:32.548Z,10.83
2022-10-25T23:52:34.348Z,11.13
2022-10-25T23:54:35.971Z,15.77
2022-10-25T23:56:37.644Z,10.73
2022-10-25T23:58:39.512Z,12.50
